Time;durP1;ratioP1;P1;durP2;ratioP2;P2;SDS_P1;SDS_P2;PMS_P1;PMS_P2;Temp;Humidity;BMP_temperature;BMP_pressure;BME280_temperature;BME280_humidity;BME280_pressure;Samples;Min_cycle;Max_cycle;Signal;HPM_P1;HPM_P2
2022/05/28 00:02:04;;;;;;;0.73;0.50;;;11.00;99.90;;;;;;4972238;28;20182;-68
2022/05/28 00:04:29;;;;;;;2.10;0.90;;;11.00;99.90;;;;;;4966486;28;20771;-70
2022/05/28 00:06:55;;;;;;;0.80;0.70;;;11.00;99.90;;;;;;4971593;28;20178;-69
2022/05/28 00:09:21;;;;;;;0.90;0.73;;;10.90;99.90;;;;;;4971223;28;20198;-70
2022/05/28 00:11:47;;;;;;;0.70;0.50;;;10.90;99.90;;;;;;4970765;28;20206;-70
2022/05/28 00:14:12;;;;;;;0.70;0.60;;;10.90;99.90;;;;;;4969791;28;20457;-70
2022/05/28 00:16:39;;;;;;;0.80;0.50;;;10.90;99.90;;;;;;4966842;28;20177;-70
2022/05/28 00:19:06;;;;;;;0.80;0.50;;;10.90;99.90;;;;;;4970455;28;20254;-70
2022/05/28 00:21:32;;;;;;;0.70;0.50;;;10.90;99.90;;;;;;4970816;28;20414;-70
2022/05/28 00:23:58;;;;;;;10.43;0.80;;;10.80;99.90;;;;;;4970880;28;20421;-69
2022/05/28 00:26:23;;;;;;;1.70;1.00;;;10.80;99.90;;;;;;4968826;28;20410;-70
2022/05/28 00:28:50;;;;;;;0.70;0.50;;;10.80;99.90;;;;;;4968397;28;20825;-70
2022/05/28 00:31:16;;;;;;;0.80;0.60;;;10.80;99.90;;;;;;4963284;28;20265;-70
2022/05/28 00:33:42;;;;;;;1.00;0.80;;;10.80;99.90;;;;;;4968027;28;20418;-70
2022/05/28 00:36:09;;;;;;;2.30;1.20;;;10.80;99.90;;;;;;4959957;29;20489;-70
2022/05/28 00:38:35;;;;;;;0.80;0.50;;;10.90;99.90;;;;;;4961066;28;20422;-69
2022/05/28 00:41:01;;;;;;;1.23;0.70;;;10.90;99.90;;;;;;4959868;28;20854;-70
2022/05/28 00:43:29;;;;;;;5.63;1.00;;;10.90;99.90;;;;;;4967262;28;20414;-70
2022/05/28 00:46:25;;;;;;;0.70;0.50;;;10.90;99.90;;;;;;4967410;28;20182;-69
2022/05/28 00:48:58;;;;;;;1.33;1.10;;;11.00;99.90;;;;;;4959944;29;20486;-71
2022/05/28 00:51:30;;;;;;;0.80;0.70;;;11.00;99.90;;;;;;4973597;28;20727;-71
2022/05/28 00:54:00;;;;;;;0.70;0.50;;;11.10;99.90;;;;;;4957879;28;20410;-71
2022/05/28 00:56:27;;;;;;;0.80;0.80;;;11.10;99.90;;;;;;4956368;28;20432;-71
2022/05/28 00:58:53;;;;;;;0.73;0.50;;;11.20;99.90;;;;;;4955750;28;20425;-69
2022/05/28 01:01:27;;;;;;;0.70;0.50;;;11.20;99.90;;;;;;4956461;28;20524;-70
2022/05/28 01:04:00;;;;;;;0.70;0.50;;;11.30;99.90;;;;;;4955639;28;20488;-71
2022/05/28 01:06:53;;;;;;;0.70;0.50;;;11.30;99.90;;;;;;4959036;28;20424;-71
2022/05/28 01:09:44;;;;;;;0.70;0.50;;;11.30;99.90;;;;;;4962317;28;20430;-69
2022/05/28 01:12:15;;;;;;;0.70;0.50;;;11.30;99.90;;;;;;4965636;28;20457;-70
2022/05/28 01:14:58;;;;;;;0.70;0.50;;;11.30;99.90;;;;;;4965590;28;20441;-71
2022/05/28 01:17:47;;;;;;;1.53;0.90;;;11.30;99.90;;;;;;4963957;28;20867;-71
2022/05/28 01:20:26;;;;;;;0.77;0.60;;;11.30;99.90;;;;;;4963884;28;20461;-71
2022/05/28 01:23:09;;;;;;;0.77;0.50;;;11.30;99.90;;;;;;4963050;28;20425;-71
2022/05/28 01:25:43;;;;;;;0.77;0.57;;;11.30;99.90;;;;;;4961651;28;20428;-70
2022/05/28 01:28:13;;;;;;;5.40;0.73;;;11.40;99.90;;;;;;4961511;28;20452;-71
2022/05/28 01:30:41;;;;;;;0.70;0.50;;;11.40;99.90;;;;;;4959751;28;20477;-71
2022/05/28 01:33:09;;;;;;;0.70;0.50;;;11.50;99.90;;;;;;4961951;28;20966;-71
2022/05/28 01:35:36;;;;;;;0.70;0.53;;;11.50;99.90;;;;;;4963330;28;20437;-71
2022/05/28 01:38:04;;;;;;;0.77;0.67;;;11.50;99.90;;;;;;4967106;28;20418;-69
2022/05/28 01:40:30;;;;;;;0.70;0.60;;;11.60;99.90;;;;;;4963282;29;20530;-70
2022/05/28 01:43:02;;;;;;;0.77;0.63;;;11.60;99.90;;;;;;4965229;28;20958;-71
2022/05/28 01:45:30;;;;;;;0.80;0.70;;;11.60;99.90;;;;;;4962861;28;20452;-71
2022/05/28 01:47:59;;;;;;;0.70;0.50;;;11.70;99.90;;;;;;4961560;28;20417;-72
2022/05/28 01:50:28;;;;;;;0.70;0.50;;;11.70;99.90;;;;;;4958544;28;20433;-71
2022/05/28 01:52:55;;;;;;;0.70;0.60;;;11.70;99.90;;;;;;4959337;29;20501;-70
2022/05/28 01:55:23;;;;;;;0.70;0.50;;;11.70;99.90;;;;;;4964745;28;20406;-70
2022/05/28 01:57:50;;;;;;;1.00;0.73;;;11.70;99.90;;;;;;4961558;28;20788;-70
2022/05/28 02:00:16;;;;;;;0.80;0.50;;;11.70;99.90;;;;;;4959533;28;20942;-70
2022/05/28 02:02:41;;;;;;;0.80;0.60;;;11.60;99.90;;;;;;4963960;28;20446;-70
2022/05/28 02:05:08;;;;;;;0.90;0.80;;;11.60;99.90;;;;;;4963326;28;20277;-71
2022/05/28 02:07:34;;;;;;;3.37;0.70;;;11.60;99.90;;;;;;4957919;28;20549;-70
2022/05/28 02:10:15;;;;;;;0.70;0.60;;;11.60;99.90;;;;;;4957905;28;20441;-72
2022/05/28 02:12:53;;;;;;;0.90;0.90;;;11.60;99.90;;;;;;4960249;29;20236;-70
2022/05/28 02:15:34;;;;;;;0.90;0.63;;;11.60;99.90;;;;;;4963507;28;20421;-70
2022/05/28 02:18:14;;;;;;;0.80;0.57;;;11.50;99.90;;;;;;4963863;28;20460;-70
2022/05/28 02:21:08;;;;;;;0.70;0.50;;;11.50;99.90;;;;;;4964737;28;20433;-70
2022/05/28 02:23:50;;;;;;;1.23;1.13;;;11.50;99.90;;;;;;4965322;28;20437;-71
2022/05/28 02:26:20;;;;;;;0.70;0.50;;;11.50;99.90;;;;;;4962279;28;20401;-70
2022/05/28 02:28:48;;;;;;;6.20;2.50;;;11.50;99.90;;;;;;4943830;29;20523;-70
2022/05/28 02:31:21;;;;;;;0.80;0.60;;;11.50;99.90;;;;;;4965135;28;20520;-71
2022/05/28 02:33:47;;;;;;;1.83;1.33;;;11.60;99.90;;;;;;4959264;28;20822;-71
2022/05/28 02:36:14;;;;;;;0.80;0.60;;;11.60;99.90;;;;;;4961705;28;20410;-71
2022/05/28 02:38:40;;;;;;;1.00;0.83;;;11.70;99.90;;;;;;4959876;28;20174;-69
2022/05/28 02:41:06;;;;;;;0.70;0.60;;;11.80;99.90;;;;;;4956379;28;20600;-70
2022/05/28 02:43:32;;;;;;;0.70;0.50;;;11.80;99.90;;;;;;4954350;28;20220;-71
2022/05/28 02:46:02;;;;;;;0.70;0.50;;;11.90;99.90;;;;;;4954659;28;20966;-71
2022/05/28 02:48:28;;;;;;;1.00;0.90;;;11.90;99.90;;;;;;4953254;28;20209;-70
2022/05/28 02:50:53;;;;;;;0.90;0.70;;;12.00;99.90;;;;;;4953166;28;20840;-70
2022/05/28 02:53:19;;;;;;;0.70;0.50;;;12.10;99.90;;;;;;4969519;28;20185;-71
2022/05/28 02:55:44;;;;;;;0.70;0.50;;;12.10;99.90;;;;;;4969428;28;20185;-71
2022/05/28 02:58:10;;;;;;;0.80;0.60;;;12.20;99.90;;;;;;4955096;28;20182;-72
2022/05/28 03:00:36;;;;;;;0.80;0.60;;;12.20;99.90;;;;;;4954232;28;20190;-71
2022/05/28 03:03:02;;;;;;;0.80;0.60;;;12.20;99.90;;;;;;4953069;28;20179;-70
2022/05/28 03:05:28;;;;;;;2.80;1.13;;;12.20;99.90;;;;;;4954443;28;20543;-70
2022/05/28 03:07:53;;;;;;;2.67;0.57;;;12.20;99.90;;;;;;4954317;28;20410;-72
2022/05/28 03:10:19;;;;;;;0.70;0.60;;;12.20;99.90;;;;;;4953931;28;20275;-71
2022/05/28 03:12:45;;;;;;;0.97;0.87;;;12.10;99.90;;;;;;4954042;28;20166;-71
2022/05/28 03:15:11;;;;;;;0.70;0.50;;;12.10;99.90;;;;;;4954002;28;20238;-71
2022/05/28 03:17:37;;;;;;;0.77;0.50;;;12.00;99.90;;;;;;4953397;28;20190;-71
2022/05/28 03:20:04;;;;;;;0.70;0.50;;;12.00;99.90;;;;;;4956152;28;20422;-70
2022/05/28 03:22:30;;;;;;;0.70;0.50;;;12.00;99.90;;;;;;4959247;28;20569;-71
2022/05/28 03:24:56;;;;;;;0.70;0.50;;;12.10;99.90;;;;;;4956428;28;20468;-71
2022/05/28 03:27:22;;;;;;;1.67;1.57;;;12.10;99.90;;;;;;4958170;28;20414;-71
2022/05/28 03:29:47;;;;;;;0.90;0.70;;;12.10;99.90;;;;;;4956499;28;20488;-71
2022/05/28 03:32:13;;;;;;;0.80;0.60;;;12.10;99.90;;;;;;4957742;28;20633;-71
2022/05/28 03:34:38;;;;;;;0.70;0.50;;;12.20;99.90;;;;;;4957937;28;20171;-70
2022/05/28 03:37:05;;;;;;;0.73;0.57;;;12.20;99.90;;;;;;4957964;28;20696;-71
2022/05/28 03:39:30;;;;;;;2.27;0.60;;;12.30;99.90;;;;;;4957774;28;20202;-71
2022/05/28 03:41:56;;;;;;;0.80;0.60;;;12.30;99.90;;;;;;4957123;28;20451;-71
2022/05/28 03:44:21;;;;;;;0.70;0.60;;;12.30;99.90;;;;;;4956811;28;20691;-71
2022/05/28 03:46:47;;;;;;;0.80;0.60;;;12.30;99.90;;;;;;4957940;28;20261;-71
2022/05/28 03:49:25;;;;;;;0.70;0.50;;;12.30;99.90;;;;;;4957014;28;20379;-71
2022/05/28 03:51:51;;;;;;;0.70;0.50;;;12.20;99.90;;;;;;4957702;28;20461;-71
2022/05/28 03:54:16;;;;;;;0.80;0.60;;;12.20;99.90;;;;;;4956516;28;20427;-71
2022/05/28 03:56:43;;;;;;;0.70;0.50;;;12.10;99.90;;;;;;4958117;28;20417;-70
2022/05/28 03:59:09;;;;;;;0.70;0.50;;;12.00;99.90;;;;;;4956627;28;20640;-70
2022/05/28 04:01:35;;;;;;;0.70;0.50;;;12.00;99.90;;;;;;4973542;28;20505;-71
2022/05/28 04:04:02;;;;;;;0.80;0.80;;;11.90;99.90;;;;;;4958768;28;20414;-70
2022/05/28 04:06:28;;;;;;;0.70;0.50;;;11.90;99.90;;;;;;4958259;28;20469;-71
2022/05/28 04:08:53;;;;;;;0.80;0.60;;;11.90;99.90;;;;;;4961586;28;20418;-70
2022/05/28 04:11:19;;;;;;;0.70;0.50;;;11.80;99.90;;;;;;4960794;28;20210;-70
2022/05/28 04:13:45;;;;;;;0.80;0.70;;;11.80;99.90;;;;;;4968303;28;20201;-71
2022/05/28 04:16:11;;;;;;;4.30;2.43;;;11.80;99.90;;;;;;4966318;28;20433;-70
2022/05/28 04:18:36;;;;;;;0.87;0.67;;;11.70;99.90;;;;;;4967720;28;20174;-70
2022/05/28 04:21:03;;;;;;;0.70;0.50;;;11.70;99.90;;;;;;4982323;28;20430;-70
2022/05/28 04:23:28;;;;;;;0.73;0.57;;;11.70;99.90;;;;;;4964366;28;20171;-71
2022/05/28 04:25:54;;;;;;;0.90;0.80;;;11.60;99.90;;;;;;4975817;28;20816;-70
2022/05/28 04:28:20;;;;;;;0.70;0.50;;;11.60;99.90;;;;;;4961330;28;20273;-71
2022/05/28 04:30:46;;;;;;;0.70;0.60;;;11.60;99.90;;;;;;4965922;28;20807;-70
2022/05/28 04:33:11;;;;;;;0.90;0.80;;;11.60;99.90;;;;;;4965180;28;20166;-71
2022/05/28 04:35:37;;;;;;;0.80;0.60;;;11.60;99.90;;;;;;4965319;28;20189;-70
2022/05/28 04:38:03;;;;;;;0.80;0.60;;;11.60;99.90;;;;;;4965772;28;20166;-70
2022/05/28 04:40:28;;;;;;;1.00;0.80;;;11.60;99.90;;;;;;4966420;28;20234;-70
2022/05/28 04:42:54;;;;;;;1.27;1.17;;;11.50;99.90;;;;;;4964441;29;20206;-70
2022/05/28 04:45:19;;;;;;;0.70;0.50;;;11.50;99.90;;;;;;4964103;28;20171;-70
2022/05/28 04:47:45;;;;;;;1.37;0.70;;;11.50;99.90;;;;;;4962216;28;20174;-70
2022/05/28 04:50:11;;;;;;;0.70;0.50;;;11.60;99.90;;;;;;4964744;28;20201;-70
2022/05/28 04:52:38;;;;;;;0.80;0.77;;;11.60;99.90;;;;;;4963041;28;20206;-70
2022/05/28 04:55:05;;;;;;;0.70;0.50;;;11.60;99.90;;;;;;4962720;28;20421;-71
2022/05/28 04:57:31;;;;;;;0.80;0.60;;;11.60;99.90;;;;;;4964521;28;20406;-70
2022/05/28 04:59:56;;;;;;;0.77;0.53;;;11.70;99.90;;;;;;4962997;28;20884;-70
2022/05/28 05:02:22;;;;;;;0.70;0.60;;;11.70;99.90;;;;;;4967146;28;20224;-71
2022/05/28 05:04:47;;;;;;;0.70;0.50;;;11.70;99.90;;;;;;4965903;29;20678;-70
2022/05/28 05:07:13;;;;;;;0.80;0.63;;;11.80;99.90;;;;;;4964875;28;20647;-69
2022/05/28 05:09:38;;;;;;;3.20;1.17;;;11.80;99.90;;;;;;4962985;28;20623;-71
2022/05/28 05:12:04;;;;;;;0.80;0.70;;;11.90;99.90;;;;;;4963610;28;20194;-70
2022/05/28 05:14:30;;;;;;;1.40;0.80;;;11.90;99.90;;;;;;4963370;28;20171;-71
2022/05/28 05:16:55;;;;;;;0.70;0.50;;;12.00;99.90;;;;;;4964113;28;20197;-70
2022/05/28 05:19:21;;;;;;;0.70;0.50;;;12.10;99.90;;;;;;4981000;28;20194;-71
2022/05/28 05:21:46;;;;;;;1.63;0.90;;;12.10;99.90;;;;;;4964001;28;20197;-71
2022/05/28 05:24:12;;;;;;;0.70;0.50;;;12.20;99.90;;;;;;4963662;28;20181;-71
2022/05/28 05:26:37;;;;;;;1.23;1.13;;;12.30;99.90;;;;;;4964621;28;20166;-71
2022/05/28 05:29:03;;;;;;;0.70;0.50;;;12.30;99.90;;;;;;4966807;28;20182;-68
2022/05/28 05:31:29;;;;;;;1.00;0.60;;;12.40;99.90;;;;;;4968663;28;20219;-71
2022/05/28 05:33:54;;;;;;;0.80;0.50;;;12.50;99.90;;;;;;4965420;28;20198;-70
2022/05/28 05:36:20;;;;;;;0.70;0.50;;;12.60;99.90;;;;;;4964710;28;20174;-71
2022/05/28 05:38:45;;;;;;;0.80;0.50;;;12.70;99.90;;;;;;4966141;28;20233;-70
2022/05/28 05:41:12;;;;;;;0.90;0.77;;;12.80;99.90;;;;;;4965171;28;20258;-71
2022/05/28 05:43:37;;;;;;;0.70;0.50;;;12.90;99.90;;;;;;4966163;28;20174;-71
2022/05/28 05:46:03;;;;;;;0.80;0.60;;;12.90;99.90;;;;;;4963661;28;20420;-70
2022/05/28 05:48:30;;;;;;;1.10;0.77;;;13.10;99.90;;;;;;4964256;28;20418;-70
2022/05/28 05:50:56;;;;;;;1.53;0.83;;;13.20;99.90;;;;;;4963828;28;20526;-70
2022/05/28 05:53:21;;;;;;;0.80;0.50;;;13.30;99.90;;;;;;4966598;28;20401;-70
2022/05/28 05:55:47;;;;;;;0.80;0.60;;;13.40;99.90;;;;;;4965900;28;20174;-70
2022/05/28 05:58:13;;;;;;;1.23;0.60;;;13.60;99.90;;;;;;4966426;28;20182;-71
2022/05/28 06:00:39;;;;;;;0.97;0.70;;;13.70;99.90;;;;;;4965015;28;20926;-70
2022/05/28 06:03:06;;;;;;;0.90;0.80;;;13.90;99.90;;;;;;4965266;28;20174;-71
2022/05/28 06:05:32;;;;;;;0.70;0.50;;;14.10;99.90;;;;;;4965940;28;20414;-71
2022/05/28 06:07:58;;;;;;;0.80;0.60;;;14.30;99.90;;;;;;4961721;28;20410;-71
2022/05/28 06:10:24;;;;;;;0.80;0.60;;;14.50;99.90;;;;;;4964236;28;20421;-70
2022/05/28 06:12:49;;;;;;;0.80;0.60;;;14.70;99.90;;;;;;4963823;28;20189;-71
2022/05/28 06:15:15;;;;;;;1.03;0.83;;;15.00;99.90;;;;;;4965273;28;20406;-71
2022/05/28 06:17:41;;;;;;;1.33;1.17;;;15.20;99.90;;;;;;4964211;28;20197;-71
2022/05/28 06:20:11;;;;;;;1.77;1.57;;;15.50;99.90;;;;;;4963510;28;20273;-71
2022/05/28 06:22:36;;;;;;;0.80;0.50;;;15.80;99.90;;;;;;4960853;28;20540;-71
2022/05/28 06:25:03;;;;;;;0.80;0.50;;;16.10;99.90;;;;;;4958884;28;20460;-71
2022/05/28 06:27:29;;;;;;;0.80;0.50;;;16.50;99.90;;;;;;4959250;28;20178;-71
2022/05/28 06:29:54;;;;;;;0.80;0.60;;;16.80;99.90;;;;;;4957700;28;20449;-71
2022/05/28 06:32:20;;;;;;;0.80;0.50;;;17.20;99.90;;;;;;4958922;29;20269;-74
2022/05/28 06:34:45;;;;;;;0.90;0.77;;;17.60;99.90;;;;;;4974419;28;20593;-71
2022/05/28 06:37:12;;;;;;;0.80;0.60;;;17.90;99.90;;;;;;4959748;28;20170;-71
2022/05/28 06:39:38;;;;;;;0.83;0.63;;;18.30;99.90;;;;;;4957856;28;20249;-71
2022/05/28 06:42:04;;;;;;;0.80;0.50;;;18.70;99.90;;;;;;4958335;28;20414;-70
2022/05/28 06:44:30;;;;;;;0.80;0.60;;;19.10;99.90;;;;;;4957384;28;20521;-70
2022/05/28 06:46:55;;;;;;;1.10;0.83;;;19.50;99.90;;;;;;4959226;28;20449;-71
2022/05/28 06:49:21;;;;;;;0.90;0.80;;;19.80;99.90;;;;;;4957727;28;20198;-71
2022/05/28 06:51:48;;;;;;;0.80;0.50;;;20.10;99.90;;;;;;4957734;28;20260;-71
2022/05/28 06:54:13;;;;;;;0.80;0.50;;;20.30;99.90;;;;;;4958434;28;20731;-72
2022/05/28 06:56:39;;;;;;;1.30;1.00;;;20.30;99.90;;;;;;4959900;29;20417;-71
2022/05/28 06:59:04;;;;;;;0.90;0.70;;;20.60;99.90;;;;;;4961496;28;20173;-71
2022/05/28 07:01:30;;;;;;;1.20;0.93;;;20.90;99.90;;;;;;4960935;28;20166;-71
2022/05/28 07:03:55;;;;;;;0.80;0.70;;;21.30;99.90;;;;;;4961541;28;20730;-72
2022/05/28 07:06:21;;;;;;;0.80;0.60;;;21.40;99.90;;;;;;4975744;28;20200;-71
2022/05/28 07:08:46;;;;;;;0.80;0.67;;;21.40;99.90;;;;;;4961122;28;20201;-71
2022/05/28 07:11:13;;;;;;;1.87;0.80;;;21.40;99.90;;;;;;4960661;28;20256;-71
2022/05/28 07:13:39;;;;;;;0.80;0.60;;;21.30;99.90;;;;;;4961006;28;20196;-71
2022/05/28 07:16:05;;;;;;;0.80;0.60;;;21.10;99.90;;;;;;4976355;28;20460;-72
2022/05/28 07:18:38;;;;;;;0.80;0.60;;;20.90;99.90;;;;;;4959923;28;20441;-71
2022/05/28 07:21:04;;;;;;;0.80;0.60;;;20.90;99.90;;;;;;4960761;28;20807;-71
2022/05/28 07:23:31;;;;;;;0.80;0.60;;;20.80;99.90;;;;;;4975917;28;20422;-71
2022/05/28 07:26:13;;;;;;;3.70;0.77;;;20.80;99.90;;;;;;4975253;28;20417;-71
2022/05/28 07:28:41;;;;;;;1.00;0.70;;;20.70;99.90;;;;;;4961216;28;20417;-70
2022/05/28 07:31:15;;;;;;;0.80;0.60;;;20.70;99.90;;;;;;4960013;28;20453;-72
2022/05/28 07:33:44;;;;;;;0.80;0.70;;;21.70;99.90;;;;;;4960613;28;20409;-70
2022/05/28 07:36:14;;;;;;;0.80;0.50;;;22.40;99.90;;;;;;4959466;28;20533;-71
2022/05/28 07:38:41;;;;;;;0.80;0.60;;;23.70;99.90;;;;;;4958909;28;20422;-71
2022/05/28 07:41:13;;;;;;;0.80;0.60;;;25.50;99.90;;;;;;4960302;28;20446;-71
2022/05/28 07:43:39;;;;;;;0.87;0.67;;;27.60;99.90;;;;;;4963493;28;21006;-71
2022/05/28 07:46:11;;;;;;;0.90;0.70;;;29.70;99.90;;;;;;4967033;28;20421;-72
2022/05/28 07:48:37;;;;;;;0.90;0.70;;;30.80;93.20;;;;;;4963963;28;20209;-71
2022/05/28 07:51:02;;;;;;;0.87;0.60;;;31.20;89.00;;;;;;4963253;28;20472;-73
2022/05/28 07:53:28;;;;;;;0.90;0.70;;;32.70;81.20;;;;;;4962312;28;20180;-71
2022/05/28 07:55:53;;;;;;;0.90;0.60;;;34.20;72.20;;;;;;4963242;28;20170;-71
2022/05/28 07:58:20;;;;;;;0.90;0.60;;;34.60;65.30;;;;;;4962954;28;20179;-71
2022/05/28 08:00:48;;;;;;;1.23;0.90;;;35.80;60.10;;;;;;4960948;28;20210;-72
2022/05/28 08:03:15;;;;;;;0.90;0.70;;;37.30;56.10;;;;;;4960094;28;20432;-70
2022/05/28 08:05:43;;;;;;;0.90;0.70;;;38.60;52.40;;;;;;4958632;28;20446;-72
2022/05/28 08:08:10;;;;;;;0.90;0.70;;;39.70;49.10;;;;;;4959861;28;20410;-71
2022/05/28 08:10:35;;;;;;;2.10;0.80;;;40.20;46.60;;;;;;4960119;28;20441;-70
2022/05/28 08:13:13;;;;;;;0.90;0.70;;;41.00;45.00;;;;;;4960416;28;20753;-70
2022/05/28 08:15:41;;;;;;;0.90;0.80;;;42.20;43.20;;;;;;4964258;28;20232;-70
2022/05/28 08:18:07;;;;;;;0.97;0.87;;;43.40;41.10;;;;;;4963857;28;20473;-72
2022/05/28 08:23:19;;;;;;;0.90;0.80;;;45.70;37.60;;;;;;4966034;29;20416;-70
2022/05/28 08:25:45;;;;;;;0.90;0.80;;;46.90;35.50;;;;;;4961022;28;20429;-70
2022/05/28 08:28:12;;;;;;;1.10;1.00;;;47.50;34.40;;;;;;4961541;28;20430;-71
2022/05/28 08:30:39;;;;;;;1.00;0.90;;;47.70;32.80;;;;;;4961682;28;20485;-69
2022/05/28 08:33:06;;;;;;;1.07;0.97;;;46.40;31.70;;;;;;4980295;28;20426;-70
2022/05/28 08:35:32;;;;;;;1.00;0.90;;;45.00;30.90;;;;;;4964201;28;20418;-71
2022/05/28 08:38:06;;;;;;;1.10;1.00;;;43.00;30.20;;;;;;4965321;28;20417;-71
2022/05/28 08:40:40;;;;;;;1.10;1.00;;;40.90;30.30;;;;;;4960395;28;20556;-70
2022/05/28 08:43:07;;;;;;;0.90;0.80;;;38.80;30.60;;;;;;4959829;28;20469;-70
2022/05/28 08:45:33;;;;;;;1.40;0.80;;;36.80;31.00;;;;;;4962501;28;20406;-69
2022/05/28 08:48:01;;;;;;;0.90;0.60;;;35.10;32.20;;;;;;4964642;28;20410;-69
2022/05/28 08:50:30;;;;;;;1.10;0.73;;;33.50;32.10;;;;;;4964915;28;20190;-69
2022/05/28 08:53:25;;;;;;;0.90;0.70;;;32.20;32.90;;;;;;4964629;28;20414;-69
2022/05/28 08:55:53;;;;;;;1.00;0.80;;;31.80;33.90;;;;;;4960614;28;20425;-72
2022/05/28 08:58:24;;;;;;;0.90;0.60;;;33.10;35.10;;;;;;4961479;28;20406;-71
2022/05/28 09:01:02;;;;;;;0.90;0.70;;;35.50;35.00;;;;;;4957595;28;20453;-72
2022/05/28 09:03:54;;;;;;;0.90;0.77;;;38.20;33.90;;;;;;4957802;28;20492;-70
2022/05/28 09:06:24;;;;;;;0.90;0.80;;;40.90;32.70;;;;;;4962004;28;20410;-70
2022/05/28 09:08:52;;;;;;;1.10;1.00;;;43.30;31.20;;;;;;4963418;28;20414;-71
2022/05/28 09:11:24;;;;;;;1.30;1.20;;;45.20;30.10;;;;;;4961457;28;20440;-71
2022/05/28 09:13:52;;;;;;;1.00;0.90;;;45.40;29.30;;;;;;4961667;28;20414;-70
2022/05/28 09:16:39;;;;;;;1.10;1.00;;;44.80;28.70;;;;;;4961973;28;20422;-70
2022/05/28 09:19:14;;;;;;;0.97;0.87;;;43.40;28.20;;;;;;4963835;28;20437;-70
2022/05/28 09:21:40;;;;;;;0.90;0.80;;;41.40;27.90;;;;;;4962239;28;20436;-70
2022/05/28 09:24:26;;;;;;;0.90;0.80;;;40.20;28.60;;;;;;4962059;28;20501;-69
2022/05/28 09:27:01;;;;;;;0.90;0.80;;;40.70;29.20;;;;;;4964398;28;20498;-69
2022/05/28 09:29:41;;;;;;;1.20;1.10;;;42.30;29.10;;;;;;4961021;28;20429;-70
2022/05/28 09:32:22;;;;;;;1.10;1.00;;;44.00;28.70;;;;;;4957931;28;20471;-71
2022/05/28 09:34:59;;;;;;;1.20;1.10;;;45.90;28.30;;;;;;4956411;28;20497;-70
2022/05/28 09:37:34;;;;;;;1.10;1.00;;;47.50;27.80;;;;;;4958269;28;20721;-71
2022/05/28 09:40:07;;;;;;;1.10;1.00;;;46.80;26.90;;;;;;4955984;28;20918;-71
2022/05/28 09:43:09;;;;;;;1.20;1.10;;;46.60;27.00;;;;;;4956146;29;20982;-71
2022/05/28 09:46:27;;;;;;;1.00;0.90;;;46.40;26.90;;;;;;4955970;28;20433;-71
2022/05/28 09:48:59;;;;;;;1.10;1.00;;;45.90;26.60;;;;;;4935843;29;20426;-71
2022/05/28 09:51:27;;;;;;;1.10;0.90;;;46.40;26.80;;;;;;4935230;29;20421;-71
2022/05/28 09:54:17;;;;;;;1.03;0.93;;;46.90;26.20;;;;;;4949564;28;20412;-71
2022/05/28 09:56:54;;;;;;;1.00;0.90;;;47.20;26.00;;;;;;4957639;28;20417;-70
2022/05/28 09:59:54;;;;;;;1.00;0.90;;;46.10;25.30;;;;;;4958323;28;20518;-71
2022/05/28 10:02:21;;;;;;;1.00;0.90;;;44.50;25.40;;;;;;4961504;28;20416;-70
2022/05/28 10:04:58;;;;;;;1.00;0.90;;;43.00;25.60;;;;;;4960230;29;20412;-70
2022/05/28 10:07:43;;;;;;;1.20;0.90;;;43.10;26.30;;;;;;4958792;28;20424;-71
2022/05/28 10:10:21;;;;;;;1.10;1.00;;;43.50;26.40;;;;;;4958922;28;20437;-71
2022/05/28 10:12:47;;;;;;;1.00;0.90;;;43.60;26.10;;;;;;4958737;28;20485;-71
2022/05/28 10:15:28;;;;;;;0.97;0.87;;;44.20;26.20;;;;;;4957908;28;20413;-71
2022/05/28 10:17:57;;;;;;;1.20;0.83;;;44.40;26.00;;;;;;4958591;28;21014;-71
2022/05/28 10:20:23;;;;;;;1.30;0.97;;;44.00;25.80;;;;;;4958292;28;20430;-70
2022/05/28 10:22:51;;;;;;;1.00;0.90;;;43.80;25.90;;;;;;4957254;28;20465;-71
2022/05/28 10:25:36;;;;;;;0.90;0.80;;;43.80;25.80;;;;;;4961541;28;20185;-71
2022/05/28 10:28:03;;;;;;;1.10;1.00;;;43.30;25.70;;;;;;4964754;28;20788;-71
2022/05/28 10:30:41;;;;;;;1.20;1.10;;;42.10;25.50;;;;;;4961643;28;20433;-71
2022/05/28 10:33:18;;;;;;;1.30;0.90;;;41.90;26.10;;;;;;4960153;28;20536;-71
2022/05/28 10:35:45;;;;;;;1.17;1.07;;;43.40;26.40;;;;;;4956657;28;20425;-70
2022/05/28 10:38:11;;;;;;;1.30;1.20;;;45.40;26.10;;;;;;4956214;28;20410;-72
2022/05/28 10:40:50;;;;;;;1.10;1.00;;;47.40;25.80;;;;;;4955489;28;20466;-71
2022/05/28 10:43:37;;;;;;;1.00;0.90;;;47.60;25.20;;;;;;4957399;28;20178;-70
2022/05/28 10:46:20;;;;;;;1.07;0.97;;;47.60;25.10;;;;;;4956916;28;20396;-71
2022/05/28 10:48:53;;;;;;;1.00;0.90;;;46.30;24.10;;;;;;4957019;28;20764;-71
2022/05/28 10:51:44;;;;;;;1.03;0.93;;;45.50;24.30;;;;;;4956296;28;20421;-71
2022/05/28 10:54:34;;;;;;;1.00;0.90;;;46.60;24.80;;;;;;4957999;28;20377;-70
2022/05/28 10:57:18;;;;;;;1.10;1.00;;;48.20;24.80;;;;;;4957730;28;20428;-71
2022/05/28 11:00:31;;;;;;;1.20;1.10;;;48.00;24.00;;;;;;4957425;28;21063;-70
2022/05/28 11:03:22;;;;;;;1.00;0.90;;;46.60;24.10;;;;;;4936468;29;20590;-70
2022/05/28 11:06:09;;;;;;;1.00;0.90;;;47.30;24.20;;;;;;4935842;29;20468;-71
2022/05/28 11:08:47;;;;;;;1.00;0.90;;;48.70;24.10;;;;;;4954664;28;20393;-71
2022/05/28 11:11:40;;;;;;;2.37;1.10;;;49.80;23.90;;;;;;4957920;28;20497;-70
2022/05/28 11:14:08;;;;;;;1.10;1.00;;;49.90;23.60;;;;;;4958203;28;20414;-71
2022/05/28 11:17:04;;;;;;;1.10;1.00;;;50.20;23.60;;;;;;4957339;28;20414;-71
2022/05/28 11:19:50;;;;;;;1.23;1.00;;;51.20;23.50;;;;;;4958768;28;20451;-71
2022/05/28 11:22:27;;;;;;;1.20;1.10;;;50.60;22.90;;;;;;4956779;28;20461;-71
2022/05/28 11:24:55;;;;;;;1.40;1.30;;;49.00;22.60;;;;;;4957445;28;20396;-71
2022/05/28 11:27:49;;;;;;;1.30;1.20;;;47.90;23.00;;;;;;4958150;28;20413;-71
2022/05/28 11:30:20;;;;;;;1.13;1.03;;;48.00;23.60;;;;;;4972318;28;21004;-71
2022/05/28 11:32:55;;;;;;;1.00;0.90;;;47.60;23.20;;;;;;4959052;28;20380;-71
2022/05/28 11:35:50;;;;;;;1.00;0.90;;;46.20;23.10;;;;;;4962035;28;20488;-70
2022/05/28 11:38:30;;;;;;;1.10;1.00;;;44.60;23.30;;;;;;4964553;29;20417;-71
2022/05/28 11:41:04;;;;;;;1.00;0.90;;;43.80;24.00;;;;;;4964769;28;20453;-71
2022/05/28 11:43:52;;;;;;;1.00;0.90;;;44.20;24.10;;;;;;4967635;28;20774;-70
2022/05/28 11:46:33;;;;;;;1.00;0.90;;;43.40;24.00;;;;;;4969014;28;20418;-69
2022/05/28 11:52:21;;;;;;;0.90;0.80;;;42.30;23.80;;;;;;4964646;28;20445;-71
2022/05/28 11:54:55;;;;;;;0.90;0.80;;;40.90;24.10;;;;;;4965855;28;20425;-70
2022/05/28 11:57:38;;;;;;;1.00;0.83;;;41.30;24.70;;;;;;4966921;28;20175;-71
2022/05/28 12:00:07;;;;;;;0.90;0.80;;;41.30;24.40;;;;;;4967788;28;20438;-69
2022/05/28 12:02:52;;;;;;;1.00;0.90;;;41.50;24.70;;;;;;4965836;28;20492;-70
2022/05/28 12:05:41;;;;;;;1.17;1.07;;;43.00;24.50;;;;;;4962278;28;20425;-70
2022/05/28 12:08:17;;;;;;;1.10;1.00;;;45.00;24.20;;;;;;4961985;28;20508;-71
2022/05/28 12:10:51;;;;;;;1.17;1.07;;;46.80;23.90;;;;;;4959555;28;20520;-71
2022/05/28 12:13:27;;;;;;;1.30;1.20;;;48.40;23.70;;;;;;4960957;28;20419;-71
2022/05/28 12:16:07;;;;;;;1.30;1.20;;;49.40;23.60;;;;;;4962394;28;20384;-71
2022/05/28 12:18:34;;;;;;;1.20;1.10;;;49.50;23.50;;;;;;4963342;28;20456;-71
2022/05/28 12:21:03;;;;;;;1.20;1.10;;;49.90;23.50;;;;;;4964185;28;20432;-72
2022/05/28 12:23:38;;;;;;;1.20;1.10;;;50.80;23.60;;;;;;4962910;28;20416;-72
2022/05/28 12:26:46;;;;;;;1.20;1.10;;;50.90;23.50;;;;;;4964002;28;20403;-72
2022/05/28 12:29:29;;;;;;;1.00;0.90;;;50.30;23.30;;;;;;4960691;29;20412;-71
2022/05/28 12:31:55;;;;;;;1.03;0.93;;;48.40;23.10;;;;;;4959763;28;20417;-71
2022/05/28 12:34:23;;;;;;;1.07;0.97;;;48.00;23.50;;;;;;4961166;28;20385;-71
2022/05/28 12:36:53;;;;;;;1.17;1.07;;;47.50;23.50;;;;;;4962874;28;20879;-71
2022/05/28 12:39:28;;;;;;;1.10;1.00;;;46.30;23.30;;;;;;4965700;28;20411;-69
2022/05/28 12:41:59;;;;;;;1.00;0.90;;;44.70;23.30;;;;;;4967686;28;20449;-70
2022/05/28 12:44:25;;;;;;;1.00;0.90;;;43.00;23.40;;;;;;4965086;28;20425;-71
2022/05/28 12:47:00;;;;;;;1.03;0.93;;;41.30;23.70;;;;;;4961333;28;20392;-70
2022/05/28 12:49:31;;;;;;;0.90;0.80;;;39.90;24.00;;;;;;4961304;28;20815;-70
2022/05/28 12:52:21;;;;;;;0.90;0.80;;;39.70;24.70;;;;;;4960365;28;20470;-70
2022/05/28 12:54:57;;;;;;;0.90;0.80;;;40.80;25.10;;;;;;4966367;28;20418;-71
2022/05/28 12:57:31;;;;;;;1.00;0.90;;;42.50;25.00;;;;;;4967076;28;20453;-70
2022/05/28 13:00:21;;;;;;;0.90;0.80;;;44.10;24.80;;;;;;4964269;28;20482;-71
2022/05/28 13:02:48;;;;;;;1.00;0.90;;;44.30;24.20;;;;;;4966804;28;21021;-70
2022/05/28 13:05:29;;;;;;;1.00;0.90;;;43.10;24.00;;;;;;4964479;28;20422;-70
2022/05/28 13:08:02;;;;;;;1.10;1.00;;;41.70;24.10;;;;;;4960831;28;20420;-70
2022/05/28 13:10:29;;;;;;;0.93;0.83;;;40.30;24.40;;;;;;4960156;28;20429;-70
2022/05/28 13:13:00;;;;;;;0.93;0.83;;;39.20;24.70;;;;;;4959325;28;20413;-70
2022/05/28 13:16:03;;;;;;;0.90;0.70;;;38.40;25.20;;;;;;4959142;29;20808;-70